Time;durP1;ratioP1;P1;durP2;ratioP2;P2;SDS_P1;SDS_P2;PMS_P1;PMS_P2;Temp;Humidity;BMP_temperature;BMP_pressure;BME280_temperature;BME280_humidity;BME280_pressure;Samples;Min_cycle;Max_cycle;Signal;HPM_P1;HPM_P2
2023/08/23 00:01:07;;;;;;;9.05;5.00;;;20.20;95.40;;;;;;6221971;23;20000;-78
2023/08/23 00:03:32;;;;;;;9.50;5.70;;;20.10;95.90;;;;;;6247723;23;20004;-79
2023/08/23 00:05:58;;;;;;;10.25;5.07;;;20.10;95.60;;;;;;6246522;23;20373;-80
2023/08/23 00:08:23;;;;;;;10.30;4.38;;;20.00;95.40;;;;;;6246118;23;20000;-79
2023/08/23 00:10:55;;;;;;;10.52;5.00;;;20.00;95.60;;;;;;6247922;23;20333;-80
2023/08/23 00:13:22;;;;;;;10.05;4.70;;;19.90;95.80;;;;;;6248785;23;20007;-80
2023/08/23 00:15:48;;;;;;;8.07;4.60;;;19.70;95.60;;;;;;6247540;23;20000;-79
2023/08/23 00:18:13;;;;;;;11.05;4.50;;;19.80;96.00;;;;;;6248671;23;20262;-79
2023/08/23 00:20:39;;;;;;;11.45;4.57;;;19.80;95.90;;;;;;6247857;23;20000;-79
2023/08/23 00:23:04;;;;;;;8.23;4.25;;;19.80;96.10;;;;;;6249101;23;20047;-79
2023/08/23 00:25:30;;;;;;;10.00;5.15;;;19.80;95.90;;;;;;6223670;23;20031;-78
2023/08/23 00:27:56;;;;;;;9.52;4.55;;;19.70;96.40;;;;;;6250715;23;20007;-78
2023/08/23 00:30:21;;;;;;;7.25;4.65;;;19.70;96.90;;;;;;6250938;23;20004;-78
2023/08/23 00:32:47;;;;;;;9.15;4.53;;;19.70;97.20;;;;;;6250073;23;20039;-78
2023/08/23 00:35:12;;;;;;;10.70;4.32;;;19.60;97.20;;;;;;6249203;23;19996;-78
2023/08/23 00:37:38;;;;;;;8.20;4.75;;;19.70;97.10;;;;;;6250780;23;20011;-78
2023/08/23 00:40:05;;;;;;;9.05;4.47;;;19.70;97.20;;;;;;6251140;23;20259;-80
2023/08/23 00:42:31;;;;;;;9.45;4.43;;;19.70;96.90;;;;;;6250692;23;20004;-80
2023/08/23 00:44:59;;;;;;;8.98;4.43;;;19.70;97.20;;;;;;6250713;23;20030;-78
2023/08/23 00:47:25;;;;;;;8.50;4.72;;;19.70;96.90;;;;;;6250831;23;20011;-79
2023/08/23 00:49:51;;;;;;;9.80;4.80;;;19.70;96.60;;;;;;6249712;23;20000;-79
2023/08/23 00:52:17;;;;;;;8.80;4.60;;;19.60;96.80;;;;;;6248328;23;20004;-79
2023/08/23 00:54:44;;;;;;;9.48;4.47;;;19.60;97.00;;;;;;6251064;23;20004;-79
2023/08/23 00:57:10;;;;;;;8.30;4.20;;;19.60;96.80;;;;;;6248137;23;20263;-79
2023/08/23 00:59:36;;;;;;;7.35;4.65;;;19.60;96.70;;;;;;6250506;23;20000;-78
2023/08/23 01:02:02;;;;;;;7.78;4.50;;;19.50;96.50;;;;;;6222669;23;20008;-79
2023/08/23 01:04:28;;;;;;;8.20;4.50;;;19.50;96.30;;;;;;6249724;23;20108;-79
2023/08/23 01:07:16;;;;;;;9.43;4.53;;;19.50;96.30;;;;;;6247931;23;20323;-78
2023/08/23 01:10:03;;;;;;;9.18;5.22;;;19.50;96.00;;;;;;6249920;23;20073;-79
2023/08/23 01:13:01;;;;;;;10.13;4.70;;;19.40;95.90;;;;;;6250113;23;20000;-79
2023/08/23 01:15:29;;;;;;;9.60;5.05;;;19.30;95.90;;;;;;6250021;23;20071;-79
2023/08/23 01:17:55;;;;;;;11.27;5.07;;;19.30;95.90;;;;;;6250198;23;20050;-79
2023/08/23 01:20:21;;;;;;;7.30;4.63;;;19.30;95.90;;;;;;6248587;23;20393;-80
2023/08/23 01:23:08;;;;;;;10.88;4.95;;;19.30;95.70;;;;;;6249874;23;20011;-79
2023/08/23 01:25:34;;;;;;;9.50;5.18;;;19.30;95.70;;;;;;6250534;23;20000;-79
2023/08/23 01:27:59;;;;;;;9.65;4.88;;;19.30;95.40;;;;;;6224198;23;20280;-80
2023/08/23 01:30:27;;;;;;;9.35;5.13;;;19.20;95.10;;;;;;6249895;23;20310;-80
2023/08/23 01:33:06;;;;;;;12.15;4.93;;;19.20;94.70;;;;;;6249826;23;20000;-80
2023/08/23 01:36:01;;;;;;;10.15;5.10;;;19.10;94.30;;;;;;6249208;23;20004;-78
2023/08/23 01:38:29;;;;;;;7.25;4.47;;;19.10;94.50;;;;;;6206933;23;20346;-79
2023/08/23 01:40:56;;;;;;;8.50;4.45;;;19.10;94.50;;;;;;6250245;23;20005;-79
2023/08/23 01:43:22;;;;;;;9.77;4.88;;;19.00;94.30;;;;;;6250232;23;19996;-79
2023/08/23 01:45:48;;;;;;;7.35;5.28;;;19.10;94.30;;;;;;6250221;23;20095;-80
2023/08/23 01:48:13;;;;;;;8.68;4.90;;;19.10;94.70;;;;;;6250014;23;20028;-79
2023/08/23 01:50:40;;;;;;;9.75;5.75;;;19.00;94.80;;;;;;6249059;23;20225;-78
2023/08/23 01:53:06;;;;;;;8.82;5.00;;;19.00;94.70;;;;;;6250701;23;20088;-79
2023/08/23 01:55:31;;;;;;;6.85;4.55;;;19.00;95.10;;;;;;6250576;23;20032;-80
2023/08/23 01:57:57;;;;;;;10.80;5.60;;;19.00;95.70;;;;;;6250207;23;20016;-80
2023/08/23 02:00:23;;;;;;;10.52;4.75;;;19.10;95.90;;;;;;6221366;23;20385;-78
2023/08/23 02:02:49;;;;;;;8.43;4.63;;;19.00;95.70;;;;;;6249022;23;20000;-80
2023/08/23 02:05:14;;;;;;;11.60;4.97;;;19.00;95.70;;;;;;6247665;23;20083;-79
2023/08/23 02:07:40;;;;;;;8.50;4.72;;;19.10;95.20;;;;;;6248691;23;20270;-79
2023/08/23 02:10:06;;;;;;;8.50;5.05;;;19.10;95.30;;;;;;6250117;23;20004;-80
2023/08/23 02:12:31;;;;;;;7.25;4.80;;;19.00;95.30;;;;;;6248287;23;20331;-79
2023/08/23 02:14:57;;;;;;;9.23;4.80;;;18.90;95.50;;;;;;6249474;23;19996;-80
2023/08/23 02:17:22;;;;;;;8.82;4.82;;;18.80;95.10;;;;;;6248952;23;20062;-80
2023/08/23 02:19:48;;;;;;;8.25;4.78;;;18.90;95.40;;;;;;6247797;23;20051;-80
2023/08/23 02:22:14;;;;;;;10.10;4.43;;;18.80;95.90;;;;;;6247377;23;20000;-80
2023/08/23 02:24:42;;;;;;;9.25;4.85;;;18.80;95.90;;;;;;6248832;23;20792;-79
2023/08/23 02:27:08;;;;;;;8.73;4.93;;;18.80;95.90;;;;;;6248877;23;20074;-80
2023/08/23 02:29:33;;;;;;;8.90;4.65;;;18.80;96.50;;;;;;6222712;23;20061;-80
2023/08/23 02:31:59;;;;;;;8.02;4.82;;;18.80;96.10;;;;;;6249051;23;20330;-79
2023/08/23 02:34:27;;;;;;;8.75;5.38;;;18.80;96.20;;;;;;6249243;23;20004;-80
2023/08/23 02:36:53;;;;;;;9.52;4.47;;;18.70;95.70;;;;;;6247493;23;20019;-79
2023/08/23 02:39:19;;;;;;;9.85;5.40;;;18.70;96.00;;;;;;6249670;23;20023;-80
2023/08/23 02:41:47;;;;;;;7.72;4.50;;;18.70;95.90;;;;;;6249615;23;20333;-80
2023/08/23 02:44:13;;;;;;;8.10;4.82;;;18.70;95.70;;;;;;6250349;23;20008;-80
2023/08/23 02:46:38;;;;;;;9.73;4.65;;;18.70;95.80;;;;;;6249566;23;19997;-80
2023/08/23 02:49:04;;;;;;;8.00;4.70;;;18.70;95.60;;;;;;6222156;23;20007;-80
2023/08/23 02:51:29;;;;;;;7.40;4.53;;;18.60;95.20;;;;;;6247410;23;20330;-80
2023/08/23 02:53:55;;;;;;;9.07;5.18;;;18.60;95.10;;;;;;6249136;23;20000;-80
2023/08/23 02:56:20;;;;;;;10.18;5.13;;;18.60;95.10;;;;;;6249070;23;20354;-80
2023/08/23 02:58:46;;;;;;;11.70;4.72;;;18.50;94.60;;;;;;6249632;23;20378;-80
2023/08/23 03:01:12;;;;;;;9.82;5.13;;;18.50;94.60;;;;;;6249061;23;20000;-80
2023/08/23 03:03:37;;;;;;;9.43;5.30;;;18.50;94.50;;;;;;6247954;23;20266;-80
2023/08/23 03:06:03;;;;;;;8.13;4.90;;;18.50;94.50;;;;;;6247677;23;20004;-80
2023/08/23 03:08:28;;;;;;;8.90;4.68;;;18.50;94.30;;;;;;6248099;23;20000;-79
2023/08/23 03:11:04;;;;;;;9.52;5.10;;;18.50;93.90;;;;;;6248706;23;20342;-80
2023/08/23 03:13:31;;;;;;;9.88;5.85;;;18.50;94.10;;;;;;6249008;23;20008;-80
2023/08/23 03:15:56;;;;;;;8.40;5.75;;;18.50;93.40;;;;;;6248452;23;20068;-80
2023/08/23 03:18:22;;;;;;;9.52;5.50;;;18.40;92.50;;;;;;6248028;23;20007;-79
2023/08/23 03:20:51;;;;;;;7.95;5.10;;;18.40;92.60;;;;;;6220724;23;20010;-79
2023/08/23 03:23:23;;;;;;;7.03;4.93;;;18.50;93.60;;;;;;6221644;23;20366;-79
2023/08/23 03:25:52;;;;;;;9.98;5.90;;;18.50;93.20;;;;;;6221465;23;20007;-79
2023/08/23 03:28:17;;;;;;;8.07;5.10;;;18.40;92.80;;;;;;6248161;23;20302;-79
2023/08/23 03:30:43;;;;;;;8.88;5.82;;;18.50;92.70;;;;;;6247905;23;20000;-79
2023/08/23 03:33:08;;;;;;;10.35;5.10;;;18.70;93.40;;;;;;6247608;23;20420;-79
2023/08/23 03:35:34;;;;;;;7.65;5.05;;;18.90;94.00;;;;;;6246218;23;20000;-79
2023/08/23 03:38:09;;;;;;;7.90;4.93;;;19.00;94.50;;;;;;6248925;23;20016;-80
2023/08/23 03:40:37;;;;;;;8.10;5.07;;;19.00;94.00;;;;;;6247978;23;20012;-79
2023/08/23 03:43:02;;;;;;;8.38;4.70;;;19.10;94.10;;;;;;6247937;23;20004;-80
2023/08/23 03:45:30;;;;;;;10.18;4.68;;;19.20;94.50;;;;;;6221404;23;20024;-79
2023/08/23 03:47:58;;;;;;;8.88;5.10;;;19.30;95.00;;;;;;6247793;23;20006;-80
2023/08/23 03:50:24;;;;;;;9.80;4.60;;;19.40;95.60;;;;;;6246989;23;20000;-80
2023/08/23 03:52:50;;;;;;;7.40;4.95;;;19.40;96.10;;;;;;6247678;23;20384;-80
2023/08/23 03:55:16;;;;;;;9.10;5.90;;;19.40;96.10;;;;;;6249833;23;20029;-80
2023/08/23 03:57:41;;;;;;;11.40;6.78;;;19.30;96.00;;;;;;6248661;23;20058;-80
2023/08/23 04:00:07;;;;;;;11.95;6.10;;;19.20;95.30;;;;;;6246620;23;20020;-80
2023/08/23 04:02:34;;;;;;;9.18;6.18;;;19.00;94.40;;;;;;6221290;23;20046;-80
2023/08/23 04:05:02;;;;;;;7.57;5.28;;;19.00;93.70;;;;;;6249240;23;20012;-80
2023/08/23 04:07:27;;;;;;;8.05;5.45;;;19.00;93.70;;;;;;6245864;23;20008;-80
2023/08/23 04:09:53;;;;;;;9.23;4.65;;;19.10;93.80;;;;;;6248224;23;20007;-80
2023/08/23 04:12:18;;;;;;;7.55;4.88;;;19.10;93.70;;;;;;6248163;23;20405;-80
2023/08/23 04:14:44;;;;;;;9.25;5.75;;;19.00;93.60;;;;;;6249226;23;19996;-80
2023/08/23 04:17:09;;;;;;;7.72;6.22;;;19.00;93.00;;;;;;6248960;23;20255;-80
2023/08/23 04:19:35;;;;;;;8.27;5.85;;;18.90;92.80;;;;;;6249024;23;20365;-81
2023/08/23 04:22:01;;;;;;;8.52;5.22;;;18.90;92.00;;;;;;6247371;23;20026;-80
2023/08/23 04:24:27;;;;;;;7.43;5.25;;;18.90;92.00;;;;;;6249525;23;20199;-80
2023/08/23 04:26:52;;;;;;;8.77;5.57;;;18.80;92.00;;;;;;6248505;23;20011;-80
2023/08/23 04:29:18;;;;;;;10.25;5.70;;;18.80;91.80;;;;;;6248935;23;20134;-80
2023/08/23 04:31:43;;;;;;;8.88;5.53;;;18.70;91.90;;;;;;6247945;23;20028;-80
2023/08/23 04:34:09;;;;;;;10.98;5.70;;;18.70;91.60;;;;;;6223049;23;20011;-80
2023/08/23 04:36:34;;;;;;;8.50;5.35;;;18.80;91.80;;;;;;6247240;23;20004;-80
2023/08/23 04:39:00;;;;;;;12.40;5.75;;;18.80;92.00;;;;;;6248242;23;20020;-80
2023/08/23 04:41:25;;;;;;;9.75;5.47;;;18.80;91.90;;;;;;6248165;23;20008;-80
2023/08/23 04:43:51;;;;;;;11.48;6.13;;;18.90;92.20;;;;;;6249632;23;20258;-80
2023/08/23 04:46:16;;;;;;;11.60;5.57;;;18.90;91.90;;;;;;6222718;23;20022;-80
2023/08/23 04:48:42;;;;;;;11.85;5.95;;;18.90;91.90;;;;;;6249139;23;20130;-81
2023/08/23 04:51:09;;;;;;;10.05;5.35;;;19.00;92.80;;;;;;6222829;23;20006;-80
2023/08/23 04:53:35;;;;;;;8.15;4.80;;;19.00;93.20;;;;;;6249116;23;20324;-81
2023/08/23 04:56:00;;;;;;;12.02;6.45;;;19.10;93.50;;;;;;6248865;23;20262;-80
2023/08/23 04:58:32;;;;;;;9.50;5.93;;;19.20;94.00;;;;;;6248003;23;20008;-80
2023/08/23 05:00:59;;;;;;;11.95;5.43;;;19.10;93.70;;;;;;6248316;23;20288;-80
2023/08/23 05:03:29;;;;;;;9.32;5.65;;;19.10;93.40;;;;;;6246986;23;20296;-80
2023/08/23 05:05:54;;;;;;;8.75;5.38;;;19.30;93.80;;;;;;6219932;23;20067;-80
2023/08/23 05:08:20;;;;;;;6.95;4.78;;;19.30;94.70;;;;;;6248506;23;20024;-80
2023/08/23 05:10:51;;;;;;;9.00;5.85;;;19.40;94.70;;;;;;6248345;23;19996;-81
2023/08/23 05:13:16;;;;;;;10.07;5.30;;;19.50;95.00;;;;;;6249618;23;20373;-80
2023/08/23 05:15:42;;;;;;;8.93;5.90;;;19.60;95.90;;;;;;6224403;23;20000;-80
2023/08/23 05:18:07;;;;;;;9.95;5.68;;;19.60;95.50;;;;;;6250652;23;20325;-80
2023/08/23 05:20:35;;;;;;;9.23;5.57;;;19.60;95.10;;;;;;6246992;23;20361;-81
2023/08/23 05:23:00;;;;;;;7.78;5.47;;;19.50;94.70;;;;;;6250288;23;20422;-80
2023/08/23 05:25:26;;;;;;;12.20;5.22;;;19.60;94.90;;;;;;6251021;23;20032;-81
2023/08/23 05:27:51;;;;;;;10.05;5.10;;;19.70;95.30;;;;;;6250537;23;20007;-81
2023/08/23 05:30:17;;;;;;;9.07;5.03;;;19.90;95.90;;;;;;6248945;23;20001;-81
2023/08/23 05:32:42;;;;;;;14.68;5.43;;;20.00;95.90;;;;;;6249327;23;20269;-80
2023/08/23 05:35:08;;;;;;;8.90;4.93;;;20.10;96.00;;;;;;6249150;23;20309;-80
2023/08/23 05:37:34;;;;;;;7.47;4.63;;;20.20;96.40;;;;;;6249911;23;20008;-80
2023/08/23 05:39:59;;;;;;;8.10;4.70;;;20.40;96.10;;;;;;6249874;23;20263;-80
2023/08/23 05:42:25;;;;;;;8.60;4.90;;;20.70;97.00;;;;;;6250586;23;20372;-80
2023/08/23 05:44:50;;;;;;;7.45;4.40;;;21.10;97.40;;;;;;6250687;23;20352;-80
2023/08/23 05:47:16;;;;;;;10.27;5.00;;;21.20;97.80;;;;;;6250711;23;20038;-80
2023/08/23 05:49:42;;;;;;;7.25;4.70;;;21.30;97.70;;;;;;6223317;23;20091;-81
2023/08/23 05:52:08;;;;;;;8.05;4.63;;;21.50;97.60;;;;;;6247297;23;20001;-81
2023/08/23 05:54:33;;;;;;;11.23;5.22;;;21.80;97.50;;;;;;6223765;23;20046;-80
2023/08/23 05:56:59;;;;;;;9.93;4.78;;;22.00;97.20;;;;;;6223143;23;20058;-81
2023/08/23 05:59:26;;;;;;;7.82;4.97;;;22.10;97.10;;;;;;6222454;23;19996;-79
2023/08/23 06:01:51;;;;;;;8.85;4.28;;;22.00;97.20;;;;;;6249462;23;20010;-80
2023/08/23 06:04:17;;;;;;;8.05;4.63;;;22.00;97.00;;;;;;6249525;23;20027;-80
2023/08/23 06:06:43;;;;;;;9.57;4.57;;;22.10;97.30;;;;;;6221611;23;20015;-80
2023/08/23 06:09:08;;;;;;;13.68;5.07;;;22.40;97.20;;;;;;6250718;23;20039;-80
2023/08/23 06:11:34;;;;;;;20.20;5.20;;;22.70;96.50;;;;;;6249438;23;20007;-80
2023/08/23 06:13:59;;;;;;;12.25;5.07;;;22.90;96.10;;;;;;6249423;23;20054;-80
2023/08/23 06:16:25;;;;;;;10.85;4.65;;;23.10;95.40;;;;;;6249819;23;20000;-79
2023/08/23 06:18:50;;;;;;;8.27;5.03;;;23.10;95.40;;;;;;6250149;23;20043;-79
2023/08/23 06:21:16;;;;;;;11.95;4.32;;;23.10;94.80;;;;;;6247092;23;20007;-80
2023/08/23 06:23:43;;;;;;;7.38;4.45;;;23.20;94.20;;;;;;6248700;23;20007;-79
2023/08/23 06:26:09;;;;;;;8.80;5.13;;;23.30;94.50;;;;;;6248873;23;20038;-80
2023/08/23 06:28:34;;;;;;;9.23;5.03;;;23.20;94.50;;;;;;6250085;23;20000;-80
2023/08/23 06:31:00;;;;;;;9.68;5.63;;;23.30;94.40;;;;;;6249479;23;20069;-80
2023/08/23 06:33:27;;;;;;;8.82;5.60;;;23.40;94.30;;;;;;6249737;23;20015;-81
2023/08/23 06:35:52;;;;;;;9.00;5.38;;;23.30;93.50;;;;;;6248416;23;20012;-80
2023/08/23 06:38:18;;;;;;;10.98;5.55;;;23.30;94.20;;;;;;6250424;23;20358;-80
2023/08/23 06:40:43;;;;;;;11.38;5.57;;;23.50;93.40;;;;;;6250696;23;20261;-80
2023/08/23 06:43:17;;;;;;;11.05;5.88;;;23.60;93.20;;;;;;6250248;23;20049;-80
2023/08/23 06:45:42;;;;;;;9.38;5.00;;;23.40;93.00;;;;;;6249399;23;20261;-80
2023/08/23 06:48:08;;;;;;;12.20;5.53;;;23.30;93.50;;;;;;6249488;23;20004;-80
2023/08/23 06:50:35;;;;;;;9.52;5.80;;;23.50;93.40;;;;;;6249120;23;20010;-80
2023/08/23 06:53:00;;;;;;;11.02;5.05;;;23.60;93.20;;;;;;6250342;23;20000;-80
2023/08/23 06:55:27;;;;;;;8.25;5.70;;;23.80;92.90;;;;;;6250560;23;20070;-80
2023/08/23 06:57:53;;;;;;;10.25;5.53;;;24.00;92.60;;;;;;6250370;23;20312;-80
2023/08/23 07:00:18;;;;;;;9.65;5.72;;;24.20;91.80;;;;;;6249862;23;20028;-80
2023/08/23 07:02:44;;;;;;;9.25;5.60;;;24.40;91.90;;;;;;6250022;23;20004;-80
2023/08/23 07:05:10;;;;;;;8.25;4.63;;;24.40;91.20;;;;;;6248921;23;20000;-80
2023/08/23 07:07:35;;;;;;;8.90;5.05;;;24.50;91.40;;;;;;6250335;23;20004;-80
2023/08/23 07:10:01;;;;;;;10.40;5.30;;;24.80;91.20;;;;;;6250407;23;20000;-79
2023/08/23 07:12:27;;;;;;;8.85;5.10;;;24.90;90.50;;;;;;6250244;23;20010;-80
2023/08/23 07:14:53;;;;;;;9.80;5.10;;;24.90;90.00;;;;;;6223810;23;20247;-80
2023/08/23 07:17:18;;;;;;;10.20;5.15;;;25.20;89.60;;;;;;6249868;23;19997;-80
2023/08/23 07:19:44;;;;;;;9.63;4.70;;;25.00;90.10;;;;;;6250296;23;19996;-80
2023/08/23 07:22:10;;;;;;;8.93;4.80;;;25.20;89.70;;;;;;6248778;23;20004;-79
2023/08/23 07:24:35;;;;;;;11.32;5.43;;;25.50;88.20;;;;;;6249031;23;20004;-80
2023/08/23 07:27:01;;;;;;;13.73;6.60;;;25.50;87.90;;;;;;6250519;23;20004;-80
2023/08/23 07:29:26;;;;;;;9.38;5.03;;;25.70;88.00;;;;;;6250245;23;20024;-79
2023/08/23 07:31:52;;;;;;;25.98;12.50;;;25.70;87.50;;;;;;6249340;23;20008;-78
2023/08/23 07:34:18;;;;;;;16.23;7.07;;;25.80;87.60;;;;;;6249920;23;20029;-79
2023/08/23 07:36:43;;;;;;;7.40;4.88;;;25.80;87.00;;;;;;6248950;23;20014;-78
2023/08/23 07:39:09;;;;;;;9.77;4.97;;;25.40;87.60;;;;;;6250106;23;20075;-78
2023/08/23 07:41:34;;;;;;;10.73;5.60;;;25.30;88.30;;;;;;6250093;23;20000;-78
2023/08/23 07:44:03;;;;;;;45.42;15.02;;;25.50;87.40;;;;;;6249989;23;20362;-79
2023/08/23 07:46:29;;;;;;;10.02;5.32;;;26.00;86.90;;;;;;6249609;23;20004;-79
2023/08/23 07:48:54;;;;;;;14.80;6.22;;;25.90;86.90;;;;;;6250022;23;20032;-79
2023/08/23 07:51:20;;;;;;;8.90;5.20;;;25.90;88.00;;;;;;6248499;23;20007;-80
2023/08/23 07:53:45;;;;;;;12.18;5.40;;;26.00;87.90;;;;;;6249943;23;20000;-79
2023/08/23 07:56:11;;;;;;;9.57;5.03;;;26.30;87.40;;;;;;6249965;23;20262;-80
2023/08/23 07:58:38;;;;;;;9.27;4.50;;;26.70;86.20;;;;;;6249770;23;20070;-79
2023/08/23 08:01:04;;;;;;;9.73;5.35;;;27.10;85.40;;;;;;6249761;23;20093;-80
2023/08/23 08:03:30;;;;;;;9.73;5.00;;;27.30;84.10;;;;;;6249922;23;20043;-80
2023/08/23 08:05:56;;;;;;;9.32;4.35;;;27.30;84.10;;;;;;6248477;23;20362;-79
2023/08/23 08:08:21;;;;;;;10.93;5.15;;;28.10;82.50;;;;;;6249854;23;20007;-79
2023/08/23 08:10:49;;;;;;;8.00;4.10;;;28.70;80.10;;;;;;6249787;23;20362;-79
2023/08/23 08:13:14;;;;;;;9.55;4.10;;;29.10;78.90;;;;;;6223213;23;20028;-79
2023/08/23 08:15:40;;;;;;;9.60;4.32;;;29.60;77.90;;;;;;6249370;23;20066;-79
2023/08/23 08:18:08;;;;;;;10.90;4.25;;;30.20;76.20;;;;;;6249846;23;20079;-79
2023/08/23 08:20:33;;;;;;;8.52;4.30;;;30.70;75.30;;;;;;6248482;23;20005;-80
2023/08/23 08:22:59;;;;;;;7.53;3.40;;;30.70;74.70;;;;;;6249852;23;20069;-80
2023/08/23 08:25:25;;;;;;;7.50;3.95;;;30.50;74.40;;;;;;6249856;23;20000;-80
2023/08/23 08:27:51;;;;;;;9.10;4.10;;;30.50;73.90;;;;;;6249855;23;20362;-80
2023/08/23 08:30:17;;;;;;;8.52;4.15;;;30.50;73.60;;;;;;6249321;23;20007;-80
2023/08/23 08:32:43;;;;;;;9.05;4.18;;;30.20;75.00;;;;;;6249049;23;20004;-80
2023/08/23 08:35:09;;;;;;;8.07;3.90;;;29.60;76.30;;;;;;6248474;23;20007;-80
2023/08/23 08:37:35;;;;;;;10.80;4.43;;;29.40;75.60;;;;;;6249874;23;20353;-80
2023/08/23 08:40:00;;;;;;;7.50;4.20;;;29.20;76.70;;;;;;6249776;23;20341;-80
2023/08/23 08:42:26;;;;;;;7.82;4.00;;;28.70;76.50;;;;;;6223478;23;20000;-80
2023/08/23 08:44:52;;;;;;;9.35;4.25;;;28.60;77.80;;;;;;6249714;23;20006;-80
2023/08/23 08:47:18;;;;;;;8.60;4.43;;;29.60;76.40;;;;;;6250617;23;20012;-80
2023/08/23 08:49:43;;;;;;;7.85;3.92;;;30.30;74.50;;;;;;6251703;23;20011;-80
2023/08/23 08:52:12;;;;;;;7.25;4.38;;;30.80;71.80;;;;;;6250177;23;20034;-80
2023/08/23 08:54:41;;;;;;;7.20;4.20;;;30.60;72.90;;;;;;6251516;23;19997;-80
2023/08/23 08:57:08;;;;;;;9.35;4.88;;;30.00;74.10;;;;;;6251456;23;20023;-80
2023/08/23 08:59:35;;;;;;;7.78;5.03;;;28.90;77.50;;;;;;6251465;23;20062;-80
2023/08/23 09:02:03;;;;;;;32.45;23.98;;;28.60;78.20;;;;;;6250835;23;20036;-80
2023/08/23 09:04:29;;;;;;;11.18;6.50;;;28.10;78.80;;;;;;6250852;23;20015;-80
2023/08/23 09:06:55;;;;;;;9.48;4.43;;;27.90;79.10;;;;;;6250102;23;20007;-80
2023/08/23 09:09:21;;;;;;;8.40;4.32;;;27.80;79.00;;;;;;6224976;23;20087;-80
2023/08/23 09:11:46;;;;;;;7.43;3.90;;;27.60;80.30;;;;;;6251441;23;20015;-81
2023/08/23 09:14:17;;;;;;;9.65;5.63;;;28.00;79.70;;;;;;6251387;23;19996;-80
2023/08/23 09:16:43;;;;;;;10.30;4.60;;;28.20;78.50;;;;;;6251483;23;20007;-80
2023/08/23 09:19:10;;;;;;;7.93;4.13;;;28.20;78.80;;;;;;6251079;23;20312;-80
2023/08/23 09:21:41;;;;;;;6.40;4.28;;;28.40;78.60;;;;;;6249331;23;20027;-80
2023/08/23 09:24:06;;;;;;;13.52;8.15;;;28.30;78.50;;;;;;6250952;23;20308;-80
2023/08/23 09:26:32;;;;;;;10.48;6.00;;;28.40;78.90;;;;;;6251188;23;20015;-79
2023/08/23 09:28:57;;;;;;;8.60;4.47;;;29.00;78.10;;;;;;6251251;23;20015;-80
2023/08/23 09:31:23;;;;;;;7.13;4.32;;;29.70;76.50;;;;;;6250593;23;20370;-80
2023/08/23 09:33:49;;;;;;;9.10;4.93;;;29.60;76.80;;;;;;6224600;23;20034;-80
2023/08/23 09:36:26;;;;;;;8.45;4.85;;;29.60;76.50;;;;;;6249851;23;20372;-80
2023/08/23 09:38:51;;;;;;;7.78;4.20;;;29.80;76.20;;;;;;6251165;23;19996;-80
2023/08/23 09:41:17;;;;;;;7.20;3.63;;;29.70;74.00;;;;;;6250893;23;19993;-80
2023/08/23 09:43:43;;;;;;;5.80;3.95;;;30.00;74.40;;;;;;6251208;23;20050;-80
2023/08/23 09:46:10;;;;;;;10.98;4.10;;;30.40;73.70;;;;;;6250841;23;20016;-79
2023/08/23 09:48:38;;;;;;;10.20;4.00;;;30.50;73.70;;;;;;6251240;23;20397;-80
2023/08/23 09:51:05;;;;;;;6.75;3.58;;;30.60;73.20;;;;;;6249759;23;20023;-81
2023/08/23 09:53:35;;;;;;;6.28;3.60;;;30.70;73.30;;;;;;6251029;23;20054;-79
2023/08/23 09:56:02;;;;;;;5.93;3.40;;;30.50;72.80;;;;;;6250632;23;19996;-80
2023/08/23 09:58:28;;;;;;;7.35;4.03;;;30.50;74.00;;;;;;6250234;23;20020;-80
2023/08/23 10:00:55;;;;;;;6.65;3.20;;;30.90;72.50;;;;;;6223606;23;20034;-80
2023/08/23 10:03:22;;;;;;;6.95;3.60;;;31.10;71.90;;;;;;6249801;23;20000;-80
2023/08/23 10:05:50;;;;;;;6.85;3.35;;;31.80;70.20;;;;;;6249094;23;20131;-80
2023/08/23 10:08:16;;;;;;;12.02;3.80;;;32.30;68.90;;;;;;6250778;23;20381;-80
2023/08/23 10:10:43;;;;;;;8.82;3.40;;;32.60;68.60;;;;;;6250751;23;20239;-80
2023/08/23 10:13:09;;;;;;;6.30;3.08;;;32.80;69.30;;;;;;6224744;23;20012;-79
2023/08/23 10:15:40;;;;;;;6.57;3.10;;;33.20;68.00;;;;;;6249652;23;20006;-80
2023/08/23 10:18:12;;;;;;;7.55;3.40;;;33.80;66.20;;;;;;6250847;23;20039;-80
2023/08/23 10:20:38;;;;;;;9.55;3.20;;;33.80;65.90;;;;;;6248860;23;20034;-80
2023/08/23 10:23:16;;;;;;;7.90;3.40;;;33.70;67.30;;;;;;6250556;23;20001;-80
2023/08/23 10:25:42;;;;;;;6.43;3.45;;;33.90;65.80;;;;;;6250272;23;20015;-79
2023/08/23 10:28:08;;;;;;;6.07;3.10;;;33.50;66.30;;;;;;6250394;23;20011;-78
2023/08/23 10:30:34;;;;;;;7.97;3.30;;;33.60;66.70;;;;;;6251047;23;20103;-78
2023/08/23 10:33:13;;;;;;;9.48;3.08;;;33.40;67.30;;;;;;6250769;23;20326;-78
2023/08/23 10:35:41;;;;;;;7.63;3.50;;;33.90;65.90;;;;;;6249410;23;20008;-79
2023/08/23 10:38:08;;;;;;;8.85;3.72;;;32.70;68.30;;;;;;6250716;23;20083;-79
2023/08/23 10:40:36;;;;;;;5.53;3.35;;;32.50;70.00;;;;;;6225780;23;20000;-79
2023/08/23 10:43:23;;;;;;;8.15;3.55;;;32.70;69.20;;;;;;6250066;23;20403;-80
2023/08/23 10:46:02;;;;;;;7.40;3.65;;;33.00;67.90;;;;;;6250202;23;20008;-79
2023/08/23 10:48:27;;;;;;;7.32;3.63;;;33.60;68.20;;;;;;6250460;23;20007;-78
2023/08/23 10:50:54;;;;;;;6.85;3.40;;;34.60;65.40;;;;;;6249093;23;20004;-79
2023/08/23 10:53:21;;;;;;;11.45;4.00;;;35.00;63.90;;;;;;6250371;23;20030;-79
2023/08/23 10:55:47;;;;;;;9.55;3.45;;;35.10;64.60;;;;;;6250176;23;20050;-80
2023/08/23 10:58:14;;;;;;;6.72;3.50;;;34.90;65.10;;;;;;6249947;23;20015;-79
2023/08/23 11:00:45;;;;;;;9.00;3.65;;;35.10;64.20;;;;;;6249043;23;20015;-79
2023/08/23 11:03:13;;;;;;;5.97;3.55;;;34.70;65.60;;;;;;6250002;23;20018;-80
2023/08/23 11:05:39;;;;;;;9.32;4.05;;;34.10;66.30;;;;;;6248946;23;20004;-79
2023/08/23 11:08:05;;;;;;;8.27;3.78;;;33.90;66.60;;;;;;6250406;23;20312;-80
2023/08/23 11:10:31;;;;;;;9.93;4.00;;;34.20;65.90;;;;;;6250241;23;20003;-80
2023/08/23 11:12:56;;;;;;;12.38;4.05;;;34.20;65.90;;;;;;6250087;23;20008;-79
2023/08/23 11:15:23;;;;;;;8.10;4.10;;;34.10;66.90;;;;;;6250196;23;20000;-80
2023/08/23 11:17:49;;;;;;;10.25;3.72;;;33.80;66.40;;;;;;6248647;23;20032;-79
2023/08/23 11:20:16;;;;;;;7.25;3.80;;;33.30;68.00;;;;;;6248876;23;20030;-79
2023/08/23 11:22:41;;;;;;;9.10;3.80;;;33.40;68.70;;;;;;6250299;23;20008;-79
2023/08/23 11:25:07;;;;;;;11.70;4.45;;;33.80;67.70;;;;;;6250179;23;20008;-80
2023/08/23 11:27:33;;;;;;;7.45;4.43;;;34.00;66.60;;;;;;6223567;23;20008;-80
2023/08/23 11:30:00;;;;;;;6.07;3.75;;;33.70;67.20;;;;;;6223571;23;20012;-79
2023/08/23 11:32:26;;;;;;;8.48;3.90;;;33.60;68.10;;;;;;6249734;23;20369;-80
2023/08/23 11:34:54;;;;;;;6.47;3.60;;;33.90;66.50;;;;;;6250129;23;20015;-79
2023/08/23 11:37:24;;;;;;;9.23;4.40;;;33.90;66.30;;;;;;6247340;23;20004;-80
2023/08/23 11:39:57;;;;;;;20.40;4.63;;;34.10;67.30;;;;;;6250134;23;20012;-79
2023/08/23 11:42:24;;;;;;;10.27;3.85;;;34.40;66.80;;;;;;6247999;23;20004;-79
2023/08/23 11:44:52;;;;;;;10.45;3.45;;;34.30;66.10;;;;;;6246843;23;20011;-78
2023/08/23 11:47:18;;;;;;;8.75;4.40;;;34.00;67.30;;;;;;6248365;23;20004;-78
2023/08/23 11:49:46;;;;;;;6.82;3.33;;;33.60;67.80;;;;;;6250030;23;20027;-78
2023/08/23 11:52:15;;;;;;;9.70;4.13;;;33.50;67.90;;;;;;6248386;23;20079;-78
2023/08/23 11:54:43;;;;;;;7.20;3.53;;;32.90;69.20;;;;;;6249970;23;20000;-78
2023/08/23 11:57:08;;;;;;;10.93;4.68;;;32.80;69.10;;;;;;6249767;23;20390;-78
2023/08/23 11:59:34;;;;;;;6.55;3.80;;;33.10;68.10;;;;;;6222807;23;20015;-78
2023/08/23 12:01:59;;;;;;;6.13;3.70;;;33.10;69.00;;;;;;6250018;23;20000;-78
2023/08/23 12:04:25;;;;;;;7.85;3.90;;;33.30;69.40;;;;;;6249906;23;20262;-78
2023/08/23 12:06:51;;;;;;;9.88;4.03;;;33.60;68.90;;;;;;6248319;23;20004;-78
2023/08/23 12:09:18;;;;;;;8.82;4.00;;;33.80;68.50;;;;;;6249854;23;20008;-78
2023/08/23 12:11:44;;;;;;;12.30;3.78;;;33.50;67.40;;;;;;6249787;23;19999;-78
2023/08/23 12:14:10;;;;;;;7.43;3.55;;;33.20;68.30;;;;;;6249390;23;19997;-78
2023/08/23 12:16:35;;;;;;;8.48;4.07;;;33.50;68.50;;;;;;6249863;23;20067;-78
2023/08/23 12:19:01;;;;;;;8.98;3.70;;;33.70;67.60;;;;;;6249642;23;19997;-78
2023/08/23 12:21:27;;;;;;;7.40;4.15;;;33.70;67.70;;;;;;6222307;23;20488;-78
2023/08/23 12:23:53;;;;;;;11.48;4.35;;;33.90;67.10;;;;;;6251436;23;20000;-78
2023/08/23 12:26:22;;;;;;;8.27;4.40;;;33.60;68.60;;;;;;6251019;23;20004;-78
2023/08/23 12:28:47;;;;;;;8.75;3.85;;;33.20;68.00;;;;;;6249674;23;20087;-78
2023/08/23 12:31:15;;;;;;;9.23;4.57;;;32.90;68.90;;;;;;6224392;23;20374;-78
2023/08/23 12:33:44;;;;;;;7.38;4.00;;;33.00;70.00;;;;;;6250897;23;20054;-78
2023/08/23 12:36:10;;;;;;;7.85;4.30;;;33.60;68.30;;;;;;6249599;23;20004;-78
2023/08/23 12:38:36;;;;;;;11.10;4.20;;;33.90;66.80;;;;;;6251384;23;20000;-78
2023/08/23 12:41:02;;;;;;;6.32;3.60;;;34.10;66.50;;;;;;6251666;23;20020;-78